Time;durP1;ratioP1;P1;durP2;ratioP2;P2;SDS_P1;SDS_P2;PMS_P1;PMS_P2;Temp;Humidity;BMP_temperature;BMP_pressure;BME280_temperature;BME280_humidity;BME280_pressure;Samples;Min_cycle;Max_cycle;Signal;HPM_P1;HPM_P2
2024/01/04 00:02:17;;;;;;;5.07;0.32;;;8.40;99.90;;;;;;5034013;28;20140;-78
2024/01/04 00:04:43;;;;;;;2.65;0.32;;;8.30;99.90;;;;;;5034949;28;20052;-78
2024/01/04 00:07:08;;;;;;;6.32;0.30;;;8.30;99.90;;;;;;5035359;28;20424;-78
2024/01/04 00:09:34;;;;;;;4.18;0.10;;;8.30;99.90;;;;;;5034239;28;20022;-78
2024/01/04 00:12:00;;;;;;;2.05;0.00;;;8.50;99.90;;;;;;5036423;28;20029;-78
2024/01/04 00:14:26;;;;;;;9.77;0.05;;;8.30;99.90;;;;;;5036288;28;20080;-78
2024/01/04 00:16:51;;;;;;;3.45;0.15;;;8.30;99.90;;;;;;5035384;28;20487;-78
2024/01/04 00:19:17;;;;;;;3.25;0.00;;;8.30;99.90;;;;;;5035961;28;20033;-79
2024/01/04 00:21:42;;;;;;;4.18;0.10;;;8.20;99.90;;;;;;5034518;28;20021;-79
2024/01/04 00:24:08;;;;;;;2.83;0.20;;;8.20;99.90;;;;;;5033816;28;20586;-79
2024/01/04 00:26:34;;;;;;;2.40;0.10;;;8.20;99.90;;;;;;5033511;28;20055;-78
2024/01/04 00:29:00;;;;;;;4.53;0.10;;;8.20;99.90;;;;;;5035179;28;20055;-78
2024/01/04 00:31:25;;;;;;;3.10;0.00;;;8.10;99.90;;;;;;5034202;28;20069;-78
2024/01/04 00:33:53;;;;;;;1.20;0.00;;;9.60;99.90;;;;;;5034667;28;20443;-79
2024/01/04 00:36:19;;;;;;;1.38;0.00;;;8.10;99.90;;;;;;5034788;28;20026;-78
2024/01/04 00:38:45;;;;;;;1.38;0.45;;;8.10;99.90;;;;;;5035032;28;20048;-78
2024/01/04 00:41:10;;;;;;;3.88;0.47;;;8.10;99.90;;;;;;5038391;28;20018;-79
2024/01/04 00:43:39;;;;;;;7.20;0.73;;;8.10;99.90;;;;;;5048882;28;20056;-79
2024/01/04 00:46:05;;;;;;;4.68;0.10;;;8.10;99.90;;;;;;5048911;28;20045;-79
2024/01/04 00:48:31;;;;;;;2.40;0.20;;;;;;;;;;5047607;28;20029;-79
2024/01/04 00:50:58;;;;;;;1.38;0.03;;;8.10;99.90;;;;;;5045748;28;20036;-78
2024/01/04 00:53:23;;;;;;;2.85;0.00;;;8.00;99.90;;;;;;5042743;28;20014;-78
2024/01/04 00:55:49;;;;;;;4.28;0.45;;;8.00;99.90;;;;;;5043353;28;20030;-78
2024/01/04 00:58:15;;;;;;;3.25;0.00;;;8.00;99.90;;;;;;5044457;28;20097;-79
2024/01/04 01:00:41;;;;;;;5.22;0.13;;;7.90;99.90;;;;;;5045221;28;20033;-79
2024/01/04 01:03:06;;;;;;;8.32;0.85;;;7.90;99.90;;;;;;5047417;28;20076;-79
2024/01/04 01:05:32;;;;;;;4.65;0.20;;;7.90;99.90;;;;;;5044969;28;20057;-79
2024/01/04 01:07:57;;;;;;;5.75;0.45;;;9.00;99.90;;;;;;5043080;28;20030;-78
2024/01/04 01:10:23;;;;;;;7.75;0.52;;;8.60;99.90;;;;;;5045010;28;20137;-78
2024/01/04 01:12:48;;;;;;;4.13;0.30;;;7.90;99.90;;;;;;5048210;28;20072;-79
2024/01/04 01:15:14;;;;;;;3.05;0.70;;;8.00;99.90;;;;;;5049298;28;20037;-80
2024/01/04 01:17:40;;;;;;;3.40;0.98;;;8.00;99.90;;;;;;5050401;28;20017;-79
2024/01/04 01:20:07;;;;;;;6.75;0.38;;;8.00;99.90;;;;;;5048553;28;20034;-78
2024/01/04 01:22:32;;;;;;;3.92;0.95;;;7.50;99.90;;;;;;5050715;28;20018;-79
2024/01/04 01:24:58;;;;;;;5.82;0.65;;;8.10;99.90;;;;;;5050867;28;20416;-79
2024/01/04 01:27:24;;;;;;;9.68;0.63;;;8.00;99.90;;;;;;5049141;28;20021;-79
2024/01/04 01:29:50;;;;;;;6.70;0.22;;;8.00;99.90;;;;;;5049805;28;20081;-79
2024/01/04 01:32:16;;;;;;;4.07;0.30;;;8.10;99.90;;;;;;5049326;28;20022;-79
2024/01/04 01:34:42;;;;;;;5.40;1.00;;;8.10;99.90;;;;;;5049910;28;20028;-79
2024/01/04 01:37:09;;;;;;;9.43;0.32;;;8.00;99.90;;;;;;5050015;28;20088;-81
2024/01/04 01:39:35;;;;;;;4.72;0.65;;;8.10;99.90;;;;;;5051300;28;20001;-79
2024/01/04 01:42:01;;;;;;;10.05;0.73;;;8.10;99.90;;;;;;5051083;28;20469;-79
2024/01/04 01:44:26;;;;;;;2.85;0.15;;;8.10;99.90;;;;;;5049667;28;20032;-79
2024/01/04 01:46:52;;;;;;;4.72;0.80;;;8.10;99.90;;;;;;5050385;28;20028;-79
2024/01/04 01:49:18;;;;;;;5.85;0.75;;;8.00;99.90;;;;;;5050671;28;20048;-80
2024/01/04 01:51:43;;;;;;;5.95;0.82;;;8.90;99.90;;;;;;5047484;28;20052;-79
2024/01/04 01:54:10;;;;;;;4.90;0.20;;;8.10;99.90;;;;;;5047938;28;20026;-79
2024/01/04 01:56:36;;;;;;;7.70;0.70;;;8.00;99.90;;;;;;5046150;28;20008;-80
2024/01/04 01:59:01;;;;;;;7.18;0.38;;;8.10;99.90;;;;;;5046546;28;20021;-80
2024/01/04 02:01:28;;;;;;;6.03;0.30;;;8.00;99.90;;;;;;5046420;28;20493;-79
2024/01/04 02:03:54;;;;;;;4.50;0.50;;;8.00;99.90;;;;;;5047279;28;20473;-79
2024/01/04 02:06:20;;;;;;;2.72;0.43;;;8.00;99.90;;;;;;5047704;28;20029;-80
2024/01/04 02:08:49;;;;;;;7.65;0.40;;;8.10;99.90;;;;;;5048536;28;20030;-79
2024/01/04 02:11:16;;;;;;;9.90;0.55;;;8.00;99.90;;;;;;5049974;28;20025;-79
2024/01/04 02:13:44;;;;;;;8.57;0.85;;;8.00;99.90;;;;;;5051149;28;20017;-79
2024/01/04 02:16:10;;;;;;;5.82;0.75;;;8.00;99.90;;;;;;5050531;28;20029;-80
2024/01/04 02:18:36;;;;;;;4.78;0.47;;;8.00;99.90;;;;;;5051610;28;20029;-79
2024/01/04 02:21:02;;;;;;;9.32;1.40;;;8.00;99.90;;;;;;5051332;28;20048;-79
2024/01/04 02:23:28;;;;;;;9.75;1.00;;;8.00;99.90;;;;;;5049584;28;20512;-79
2024/01/04 02:25:59;;;;;;;9.57;0.50;;;8.00;99.90;;;;;;5051584;28;20104;-80
2024/01/04 02:28:25;;;;;;;4.18;0.43;;;8.00;99.90;;;;;;5051183;28;20024;-80
2024/01/04 02:30:51;;;;;;;5.00;0.75;;;8.00;99.90;;;;;;5049736;28;20084;-80
2024/01/04 02:33:17;;;;;;;12.20;1.02;;;8.00;99.90;;;;;;5051700;28;20026;-79
2024/01/04 02:35:42;;;;;;;4.25;0.55;;;8.10;99.90;;;;;;5050162;28;20030;-80
2024/01/04 02:38:08;;;;;;;8.55;0.63;;;9.50;99.90;;;;;;5050596;28;20020;-79
2024/01/04 02:40:35;;;;;;;7.18;1.27;;;8.10;99.90;;;;;;5051610;28;20026;-79
2024/01/04 02:43:01;;;;;;;2.95;0.25;;;8.10;99.90;;;;;;5049770;28;20048;-79
2024/01/04 02:45:26;;;;;;;5.50;0.30;;;8.10;99.90;;;;;;5049542;28;20021;-80
2024/01/04 02:47:52;;;;;;;6.32;0.28;;;8.10;99.90;;;;;;5049486;28;20026;-79
2024/01/04 02:50:18;;;;;;;6.18;0.30;;;8.00;99.90;;;;;;5049749;28;20086;-80
2024/01/04 02:52:44;;;;;;;3.17;0.10;;;8.00;99.90;;;;;;5049478;28;20025;-79
2024/01/04 02:55:10;;;;;;;2.97;0.10;;;8.00;99.90;;;;;;5050176;28;20037;-80
2024/01/04 02:57:36;;;;;;;2.55;0.45;;;8.10;99.90;;;;;;5050194;28;20026;-80
2024/01/04 03:00:01;;;;;;;4.00;0.65;;;7.90;99.90;;;;;;5048333;28;20082;-79
2024/01/04 03:02:27;;;;;;;5.70;0.57;;;8.00;99.90;;;;;;5049095;28;20022;-80
2024/01/04 03:04:53;;;;;;;6.22;0.55;;;;;;;;;;5050845;28;20026;-81
2024/01/04 03:07:19;;;;;;;3.92;0.20;;;7.90;99.90;;;;;;5048417;28;20096;-80
2024/01/04 03:09:48;;;;;;;3.13;0.20;;;;;;;;;;5048728;28;20508;-79
2024/01/04 03:12:14;;;;;;;6.60;1.17;;;7.90;99.90;;;;;;5049518;28;20026;-79
2024/01/04 03:14:39;;;;;;;2.67;0.10;;;7.90;99.90;;;;;;5049288;28;20020;-80
2024/01/04 03:17:05;;;;;;;5.55;0.40;;;7.90;99.90;;;;;;5050345;28;20423;-80
2024/01/04 03:19:31;;;;;;;8.75;1.10;;;7.90;99.90;;;;;;5049933;28;20022;-80
2024/01/04 03:21:56;;;;;;;2.63;0.10;;;7.90;99.90;;;;;;5047714;28;20036;-80
2024/01/04 03:24:22;;;;;;;6.07;0.32;;;7.80;99.90;;;;;;5048613;28;20028;-79
2024/01/04 03:26:47;;;;;;;6.15;0.20;;;7.80;99.90;;;;;;5049682;28;20116;-80
2024/01/04 03:29:13;;;;;;;0.90;0.50;;;7.80;99.90;;;;;;5048968;28;20036;-79
2024/01/04 03:31:39;;;;;;;1.42;0.55;;;7.80;99.90;;;;;;5048283;28;20026;-80
2024/01/04 03:34:04;;;;;;;3.45;0.22;;;7.80;99.90;;;;;;5048886;28;20049;-80
2024/01/04 03:36:30;;;;;;;5.25;0.10;;;;;;;;;;5048125;28;20029;-80
2024/01/04 03:38:57;;;;;;;6.95;0.10;;;7.80;99.90;;;;;;5048020;28;20021;-80
2024/01/04 03:41:22;;;;;;;3.67;0.00;;;7.80;99.90;;;;;;5049301;28;20025;-80
2024/01/04 03:43:48;;;;;;;8.57;0.32;;;7.80;99.90;;;;;;5049344;28;20013;-80
2024/01/04 03:46:13;;;;;;;1.60;0.20;;;7.80;99.90;;;;;;5048366;28;20028;-79
2024/01/04 03:48:39;;;;;;;2.90;0.10;;;8.30;99.90;;;;;;5048991;28;20036;-80
2024/01/04 03:51:05;;;;;;;4.15;0.10;;;7.80;99.90;;;;;;5049901;28;20034;-80
2024/01/04 03:53:30;;;;;;;3.05;0.55;;;7.80;99.90;;;;;;5047745;28;20518;-80
2024/01/04 03:55:56;;;;;;;5.43;0.30;;;7.80;99.90;;;;;;5049240;28;20071;-80
2024/01/04 03:58:22;;;;;;;3.35;0.30;;;7.80;99.90;;;;;;5046630;28;20036;-79
2024/01/04 04:00:47;;;;;;;8.70;0.52;;;7.80;99.90;;;;;;5046498;28;20030;-79
2024/01/04 04:03:18;;;;;;;3.97;0.73;;;7.80;99.90;;;;;;5047868;28;20587;-79
2024/01/04 04:05:44;;;;;;;15.75;0.65;;;7.80;99.90;;;;;;5049636;28;20539;-80
2024/01/04 04:08:10;;;;;;;2.65;0.20;;;7.80;99.90;;;;;;5047642;28;20018;-79
2024/01/04 04:10:36;;;;;;;4.72;0.63;;;7.80;99.90;;;;;;5047279;28;20025;-80
2024/01/04 04:13:01;;;;;;;6.72;0.30;;;7.80;99.90;;;;;;5047555;28;20021;-79
2024/01/04 04:15:27;;;;;;;7.57;0.40;;;7.80;99.90;;;;;;5047986;28;20113;-80
2024/01/04 04:17:55;;;;;;;4.95;0.13;;;7.80;99.90;;;;;;5047465;28;20033;-80
2024/01/04 04:20:20;;;;;;;6.55;0.47;;;7.90;99.90;;;;;;5047286;28;20001;-80
2024/01/04 04:22:46;;;;;;;3.70;1.00;;;7.90;99.90;;;;;;5048718;28;20388;-80
2024/01/04 04:25:12;;;;;;;6.22;0.50;;;7.90;99.90;;;;;;5048415;28;20030;-81
2024/01/04 04:27:38;;;;;;;5.47;0.35;;;9.60;99.90;;;;;;5049172;28;20026;-80
2024/01/04 04:30:04;;;;;;;0.85;0.20;;;7.90;99.90;;;;;;5047459;28;20032;-80
2024/01/04 04:32:30;;;;;;;1.77;0.22;;;7.90;99.90;;;;;;5048901;28;20021;-80
2024/01/04 04:34:55;;;;;;;0.80;0.00;;;7.90;99.90;;;;;;5046893;28;20033;-81
2024/01/04 04:37:22;;;;;;;2.80;0.10;;;9.50;99.90;;;;;;5048942;28;20377;-79
2024/01/04 04:39:48;;;;;;;1.30;0.10;;;7.80;99.90;;;;;;5048021;28;20021;-79
2024/01/04 04:42:13;;;;;;;1.42;0.00;;;7.80;99.90;;;;;;5048275;28;20036;-79
2024/01/04 04:44:39;;;;;;;2.55;0.08;;;7.80;99.90;;;;;;5046434;28;20140;-81
2024/01/04 04:47:05;;;;;;;0.73;0.00;;;7.70;99.90;;;;;;5047175;28;20021;-79
2024/01/04 04:49:31;;;;;;;3.40;0.22;;;7.70;99.90;;;;;;5045925;28;20068;-79
2024/01/04 04:51:56;;;;;;;1.27;0.00;;;7.70;99.90;;;;;;5046211;28;20052;-79
2024/01/04 04:54:22;;;;;;;0.32;0.15;;;7.70;99.90;;;;;;5047399;28;20032;-80
2024/01/04 04:56:48;;;;;;;1.20;0.00;;;7.60;99.90;;;;;;5045050;28;20022;-79
2024/01/04 04:59:14;;;;;;;1.73;0.00;;;7.60;99.90;;;;;;5046373;28;20033;-79
2024/01/04 05:01:40;;;;;;;2.35;0.20;;;7.60;99.90;;;;;;5047795;28;20029;-79
2024/01/04 05:04:06;;;;;;;3.72;0.00;;;7.50;99.90;;;;;;5046558;28;20030;-80
2024/01/04 05:06:31;;;;;;;2.70;0.03;;;7.50;99.90;;;;;;5047687;28;20057;-80
2024/01/04 05:08:57;;;;;;;3.00;0.00;;;7.50;99.90;;;;;;5044169;28;20022;-79
2024/01/04 05:11:23;;;;;;;1.08;0.32;;;;;;;;;;5046374;28;20022;-79
2024/01/04 05:13:48;;;;;;;2.38;0.00;;;7.50;99.90;;;;;;5045730;28;20025;-80
2024/01/04 05:16:14;;;;;;;0.80;0.00;;;7.50;99.90;;;;;;5044587;28;20033;-80
2024/01/04 05:18:39;;;;;;;1.00;0.00;;;7.50;99.90;;;;;;5033735;28;20025;-78
2024/01/04 05:21:05;;;;;;;2.17;0.00;;;7.60;99.90;;;;;;5034367;28;20025;-78
2024/01/04 05:23:31;;;;;;;1.67;0.00;;;7.50;99.90;;;;;;5034037;28;20029;-78
2024/01/04 05:25:56;;;;;;;3.00;0.00;;;7.50;99.90;;;;;;5033713;28;20022;-78
2024/01/04 05:28:22;;;;;;;0.75;0.00;;;7.50;99.90;;;;;;5033809;28;20030;-79
2024/01/04 05:30:48;;;;;;;2.85;0.10;;;7.60;99.90;;;;;;5032708;28;20071;-77
2024/01/04 05:33:14;;;;;;;0.50;0.00;;;7.50;99.90;;;;;;5032214;28;20022;-77
2024/01/04 05:35:40;;;;;;;0.45;0.00;;;;;;;;;;5033633;28;20481;-81
2024/01/04 05:38:05;;;;;;;3.35;0.10;;;7.50;99.90;;;;;;5034965;28;20114;-78
2024/01/04 05:40:31;;;;;;;4.88;0.10;;;7.60;99.90;;;;;;5032274;28;20488;-78
2024/01/04 05:42:58;;;;;;;1.27;0.00;;;7.50;99.90;;;;;;5033641;28;20396;-78
2024/01/04 05:45:24;;;;;;;0.40;0.00;;;7.50;99.90;;;;;;5037309;28;20036;-78
2024/01/04 05:47:49;;;;;;;1.45;0.10;;;7.80;99.90;;;;;;5038487;28;20477;-78
2024/01/04 05:50:15;;;;;;;3.92;0.80;;;7.50;99.90;;;;;;5037379;28;20028;-78
2024/01/04 05:52:41;;;;;;;3.20;0.00;;;7.60;99.90;;;;;;5037815;28;20038;-77
2024/01/04 05:55:07;;;;;;;1.83;0.10;;;7.60;99.90;;;;;;5036850;28;20534;-77
2024/01/04 05:57:34;;;;;;;1.98;0.28;;;7.60;99.90;;;;;;5042591;28;20404;-78
2024/01/04 05:59:59;;;;;;;3.15;0.32;;;7.60;99.90;;;;;;5046484;28;20030;-78
2024/01/04 06:02:27;;;;;;;3.30;0.08;;;7.60;99.90;;;;;;5049023;28;20124;-78
2024/01/04 06:04:53;;;;;;;0.50;0.00;;;7.60;99.90;;;;;;5047022;28;20021;-79
2024/01/04 06:07:20;;;;;;;0.68;0.00;;;7.50;99.90;;;;;;5049129;28;20033;-81
2024/01/04 06:09:45;;;;;;;2.67;0.20;;;7.60;99.90;;;;;;5048018;28;20101;-81
2024/01/04 06:12:11;;;;;;;2.30;0.30;;;7.50;99.90;;;;;;5045939;28;20033;-80
2024/01/04 06:14:36;;;;;;;1.10;0.00;;;7.50;99.90;;;;;;5046728;28;20084;-81
2024/01/04 06:17:02;;;;;;;0.63;0.00;;;8.40;99.90;;;;;;5047851;28;20059;-80
2024/01/04 06:19:30;;;;;;;3.55;0.00;;;7.50;99.90;;;;;;5046853;28;20029;-80
2024/01/04 06:21:56;;;;;;;0.40;0.00;;;7.50;99.90;;;;;;5046737;28;20484;-80
2024/01/04 06:24:23;;;;;;;0.50;0.00;;;7.50;99.90;;;;;;5045823;28;20033;-80
2024/01/04 06:26:48;;;;;;;0.82;0.03;;;7.50;99.90;;;;;;5045275;28;20021;-81
2024/01/04 06:29:14;;;;;;;0.20;0.00;;;7.60;99.90;;;;;;5045985;28;20531;-80
2024/01/04 06:31:40;;;;;;;5.00;0.17;;;7.50;99.90;;;;;;5044633;28;20044;-80
2024/01/04 06:34:05;;;;;;;0.40;0.08;;;7.50;99.90;;;;;;5046200;28;20021;-80
2024/01/04 06:36:31;;;;;;;1.65;0.00;;;7.50;99.90;;;;;;5046081;28;20026;-81
2024/01/04 06:38:57;;;;;;;0.45;0.05;;;7.60;99.90;;;;;;5045596;28;20032;-81
2024/01/04 06:41:23;;;;;;;1.88;0.10;;;7.50;99.90;;;;;;5045424;28;20431;-81
2024/01/04 06:43:49;;;;;;;3.25;0.03;;;7.50;99.90;;;;;;5047461;28;20013;-81
2024/01/04 06:46:17;;;;;;;3.10;0.00;;;7.50;99.90;;;;;;5045712;28;20040;-80
2024/01/04 06:48:43;;;;;;;1.65;0.00;;;7.50;99.90;;;;;;5048154;28;20018;-81
2024/01/04 06:51:09;;;;;;;2.05;0.13;;;7.50;99.90;;;;;;5047873;28;20038;-81
2024/01/04 06:53:35;;;;;;;1.90;0.20;;;;;;;;;;5050215;28;20091;-81
2024/01/04 06:56:00;;;;;;;1.95;0.00;;;7.50;99.90;;;;;;5047632;28;20026;-81
2024/01/04 06:58:26;;;;;;;0.45;0.10;;;7.50;99.90;;;;;;5048882;28;20503;-81
2024/01/04 07:00:52;;;;;;;1.85;0.00;;;7.50;99.90;;;;;;5049175;28;20082;-81
2024/01/04 07:03:19;;;;;;;0.98;0.00;;;7.50;99.90;;;;;;5048424;28;20021;-81
2024/01/04 07:05:45;;;;;;;0.63;0.05;;;7.40;99.90;;;;;;5047723;28;20029;-81
2024/01/04 07:08:11;;;;;;;3.78;0.10;;;7.50;99.90;;;;;;5048810;28;20025;-81
2024/01/04 07:10:38;;;;;;;3.45;0.63;;;7.40;99.90;;;;;;5046619;28;20026;-82
2024/01/04 07:13:04;;;;;;;1.48;0.10;;;7.40;99.90;;;;;;5044390;28;20388;-82
2024/01/04 07:15:29;;;;;;;5.28;0.00;;;7.30;99.90;;;;;;5044329;28;20026;-82
2024/01/04 07:17:55;;;;;;;0.85;0.00;;;7.30;99.90;;;;;;5043112;28;20021;-81
2024/01/04 07:20:21;;;;;;;0.82;0.17;;;7.30;99.90;;;;;;5044158;28;20030;-82
2024/01/04 07:22:47;;;;;;;2.92;0.13;;;7.30;99.90;;;;;;5044365;28;20021;-81
2024/01/04 07:25:13;;;;;;;4.95;0.20;;;7.30;99.90;;;;;;5046157;28;20481;-81
2024/01/04 07:27:39;;;;;;;1.20;0.10;;;7.30;99.90;;;;;;5046319;28;20031;-81
2024/01/04 07:30:05;;;;;;;7.25;0.20;;;7.30;99.90;;;;;;5045845;28;20025;-81
2024/01/04 07:32:30;;;;;;;2.75;0.10;;;7.30;99.90;;;;;;5046816;28;20021;-81
2024/01/04 07:34:56;;;;;;;0.77;0.10;;;7.30;99.90;;;;;;5045623;28;20018;-81
2024/01/04 07:37:22;;;;;;;3.88;0.10;;;7.30;99.90;;;;;;5046156;28;20029;-80
2024/01/04 07:39:48;;;;;;;1.98;0.10;;;7.30;99.90;;;;;;5046996;28;20024;-81
2024/01/04 07:42:13;;;;;;;5.18;0.10;;;7.30;99.90;;;;;;5046644;28;20021;-80
2024/01/04 07:44:39;;;;;;;1.70;0.22;;;7.30;99.90;;;;;;5047643;28;20524;-82
2024/01/04 07:47:04;;;;;;;2.83;0.08;;;7.30;99.90;;;;;;5048247;28;20028;-81
2024/01/04 07:49:30;;;;;;;4.25;0.40;;;9.20;99.90;;;;;;5047695;28;20017;-81
2024/01/04 07:51:55;;;;;;;0.38;0.10;;;7.40;99.90;;;;;;5046960;28;20026;-81
2024/01/04 07:54:22;;;;;;;1.67;0.10;;;7.40;99.90;;;;;;5048331;28;20052;-81
2024/01/04 07:56:49;;;;;;;4.18;0.10;;;7.40;99.90;;;;;;5048908;28;20028;-81
2024/01/04 07:59:15;;;;;;;1.85;0.10;;;7.40;99.90;;;;;;5046264;28;20021;-81
2024/01/04 08:01:40;;;;;;;2.33;0.32;;;7.40;99.90;;;;;;5046701;28;20473;-81
2024/01/04 08:04:06;;;;;;;1.35;0.20;;;7.40;99.90;;;;;;5048242;28;20493;-81
2024/01/04 08:06:32;;;;;;;2.55;0.50;;;7.40;99.90;;;;;;5046422;28;20120;-81
2024/01/04 08:08:57;;;;;;;6.57;0.20;;;7.50;99.90;;;;;;5048185;28;20034;-81
2024/01/04 08:11:23;;;;;;;0.95;0.47;;;7.50;99.90;;;;;;5047169;28;20021;-81
2024/01/04 08:13:53;;;;;;;4.25;0.63;;;7.50;99.90;;;;;;5048001;28;20452;-81
2024/01/04 08:16:19;;;;;;;1.23;0.25;;;7.50;99.90;;;;;;5045792;28;20024;-81
2024/01/04 08:18:45;;;;;;;1.17;0.00;;;7.50;99.90;;;;;;5046349;28;20036;-81
2024/01/04 08:21:11;;;;;;;2.30;0.32;;;7.50;99.90;;;;;;5046114;28;20021;-81
2024/01/04 08:23:41;;;;;;;3.25;0.40;;;7.50;99.90;;;;;;5046939;28;20040;-79
2024/01/04 08:26:07;;;;;;;1.52;0.30;;;7.50;99.90;;;;;;5046891;28;20025;-79
2024/01/04 08:28:33;;;;;;;3.17;0.13;;;7.50;99.90;;;;;;5046832;28;20105;-80
2024/01/04 08:31:00;;;;;;;3.55;0.35;;;;;;;;;;5047285;28;20399;-79
2024/01/04 08:33:25;;;;;;;2.60;0.25;;;7.50;99.90;;;;;;5047228;28;20214;-81
2024/01/04 08:35:51;;;;;;;1.17;0.22;;;7.50;99.90;;;;;;5046963;28;20030;-80
2024/01/04 08:38:16;;;;;;;0.75;0.13;;;7.60;99.90;;;;;;5048324;28;20049;-80
2024/01/04 08:40:42;;;;;;;2.90;0.30;;;7.60;99.90;;;;;;5049604;28;20018;-80
2024/01/04 08:43:08;;;;;;;3.75;0.40;;;7.60;99.90;;;;;;5048106;28;20026;-80
2024/01/04 08:45:33;;;;;;;2.95;0.38;;;7.70;99.90;;;;;;5047383;28;20061;-79
2024/01/04 08:47:59;;;;;;;2.42;0.20;;;7.70;99.90;;;;;;5037013;28;20033;-78
2024/01/04 08:50:24;;;;;;;2.95;0.25;;;7.70;99.90;;;;;;5033555;28;20029;-78
2024/01/04 08:52:51;;;;;;;1.75;0.40;;;7.90;99.90;;;;;;5035989;28;20017;-78
2024/01/04 08:55:20;;;;;;;1.60;0.20;;;7.70;99.90;;;;;;5039976;28;20041;-79
2024/01/04 08:57:46;;;;;;;;;;;7.80;99.90;;;;;;5039451;28;20029;-78
2024/01/04 09:00:14;;;;;;;2.38;0.28;;;7.90;99.90;;;;;;5037612;28;19940;-79
2024/01/04 09:02:45;;;;;;;3.33;0.45;;;7.80;99.90;;;;;;5038734;28;20048;-79
2024/01/04 09:05:11;;;;;;;2.90;0.60;;;7.90;99.90;;;;;;5039076;28;20084;-79
2024/01/04 09:07:37;;;;;;;1.73;0.45;;;7.80;99.90;;;;;;5040895;28;20075;-79
2024/01/04 09:10:04;;;;;;;3.72;0.52;;;7.80;99.90;;;;;;5038743;28;20017;-79
2024/01/04 09:12:30;;;;;;;4.15;0.88;;;7.90;99.90;;;;;;5040463;28;20101;-79
2024/01/04 09:14:56;;;;;;;2.40;0.50;;;7.90;99.90;;;;;;5039670;28;20026;-79
2024/01/04 09:17:21;;;;;;;1.23;0.30;;;7.90;99.90;;;;;;5039895;28;20025;-79
2024/01/04 09:19:49;;;;;;;1.35;0.30;;;7.90;99.90;;;;;;5042112;28;20030;-79
2024/01/04 09:22:15;;;;;;;3.25;0.70;;;7.90;99.90;;;;;;5043025;28;20022;-79
2024/01/04 09:24:40;;;;;;;2.35;0.50;;;7.90;99.90;;;;;;5041087;28;20029;-79
2024/01/04 09:27:06;;;;;;;3.40;0.70;;;7.90;99.90;;;;;;5042766;28;20018;-79
2024/01/04 09:29:32;;;;;;;2.00;0.70;;;7.90;99.90;;;;;;5041388;28;20025;-79
2024/01/04 09:31:57;;;;;;;3.90;0.90;;;7.90;99.90;;;;;;5043261;28;20025;-79
2024/01/04 09:34:24;;;;;;;1.70;0.20;;;7.90;99.90;;;;;;5042130;28;20097;-78
2024/01/04 09:36:50;;;;;;;3.85;0.30;;;7.90;99.90;;;;;;5039368;28;20032;-79
2024/01/04 09:39:17;;;;;;;2.55;0.82;;;7.90;99.90;;;;;;5043743;28;20021;-79
2024/01/04 09:41:47;;;;;;;3.20;0.88;;;7.90;99.90;;;;;;5043705;28;20024;-79
2024/01/04 09:44:13;;;;;;;5.82;0.73;;;8.00;99.90;;;;;;5043414;28;20056;-79
2024/01/04 09:46:41;;;;;;;5.22;0.30;;;8.00;99.90;;;;;;5038209;28;20025;-78
2024/01/04 09:49:08;;;;;;;7.80;1.35;;;8.00;99.90;;;;;;5042515;28;20025;-79
2024/01/04 09:51:38;;;;;;;5.35;1.90;;;8.10;99.90;;;;;;5043606;28;20497;-79
2024/01/04 09:54:09;;;;;;;3.28;0.30;;;8.20;99.90;;;;;;5042470;28;20052;-79
2024/01/04 09:56:46;;;;;;;4.88;1.23;;;8.20;99.90;;;;;;5043950;28;20083;-79
2024/01/04 09:59:11;;;;;;;5.43;0.52;;;8.40;99.90;;;;;;5043283;28;20022;-79
2024/01/04 10:01:38;;;;;;;2.80;0.90;;;8.40;99.90;;;;;;5042730;28;20048;-79
2024/01/04 10:04:06;;;;;;;2.13;0.60;;;8.50;99.90;;;;;;5042939;28;20044;-79
2024/01/04 10:06:37;;;;;;;5.00;0.82;;;8.60;99.90;;;;;;5043140;28;20104;-79
2024/01/04 10:09:20;;;;;;;4.30;0.90;;;8.60;99.90;;;;;;5039601;28;20021;-78
2024/01/04 10:11:49;;;;;;;5.45;0.50;;;8.60;99.90;;;;;;5040291;28;20075;-78
2024/01/04 10:14:15;;;;;;;2.42;0.20;;;8.70;99.90;;;;;;5039388;28;20022;-77
2024/01/04 10:16:42;;;;;;;3.72;0.30;;;8.70;99.90;;;;;;5044353;28;20029;-80
2024/01/04 10:19:08;;;;;;;5.68;0.57;;;8.70;99.90;;;;;;5047861;28;20033;-79
2024/01/04 10:21:34;;;;;;;2.35;0.22;;;8.70;99.90;;;;;;5049260;28;20025;-79
2024/01/04 10:24:00;;;;;;;1.48;0.30;;;8.70;99.90;;;;;;5049054;28;20021;-79
2024/01/04 10:26:27;;;;;;;4.35;0.10;;;8.80;99.90;;;;;;5044097;28;20025;-77
2024/01/04 10:28:59;;;;;;;4.40;0.60;;;8.80;99.90;;;;;;5042328;28;20022;-78
2024/01/04 10:31:26;;;;;;;4.25;0.32;;;8.80;99.90;;;;;;5045565;28;20049;-78
2024/01/04 10:34:01;;;;;;;4.53;0.40;;;8.80;99.90;;;;;;5045165;28;20026;-78
2024/01/04 10:36:32;;;;;;;1.42;0.52;;;8.80;99.90;;;;;;5042176;28;20032;-76
2024/01/04 10:39:00;;;;;;;1.35;0.10;;;8.70;99.90;;;;;;5036272;28;20025;-77
2024/01/04 10:41:28;;;;;;;2.37;0.27;;;8.80;99.90;;;;;;5045842;28;20089;-78
2024/01/04 10:44:06;;;;;;;3.35;0.05;;;8.90;99.90;;;;;;5045753;28;20024;-79
2024/01/04 10:46:36;;;;;;;5.53;0.10;;;8.90;99.90;;;;;;5044102;28;20056;-79
2024/01/04 10:49:05;;;;;;;0.75;0.32;;;8.90;99.90;;;;;;5044268;28;20039;-78
2024/01/04 10:51:31;;;;;;;;;;;8.90;99.90;;;;;;5045616;28;20041;-78
2024/01/04 10:54:01;;;;;;;1.60;0.05;;;8.90;99.90;;;;;;5043972;28;19955;-78
2024/01/04 10:56:31;;;;;;;3.53;0.20;;;8.90;99.90;;;;;;5044375;28;20041;-79
2024/01/04 10:58:58;;;;;;;3.50;0.25;;;8.80;99.90;;;;;;5044821;28;20018;-78
2024/01/04 11:01:25;;;;;;;0.90;0.20;;;8.80;99.90;;;;;;5044733;28;20096;-78
2024/01/04 11:03:54;;;;;;;3.00;0.22;;;8.80;99.90;;;;;;5044181;28;20443;-78
2024/01/04 11:06:22;;;;;;;0.43;0.00;;;8.80;99.90;;;;;;5042259;28;20036;-80
2024/01/04 11:08:49;;;;;;;2.65;0.00;;;8.80;99.90;;;;;;5042823;28;20460;-78
2024/01/04 11:11:16;;;;;;;2.63;0.30;;;8.80;99.90;;;;;;5043245;28;20094;-78
2024/01/04 11:13:42;;;;;;;1.30;0.10;;;8.70;99.90;;;;;;5042847;28;20104;-78
2024/01/04 11:16:20;;;;;;;0.63;0.00;;;8.70;99.90;;;;;;5046321;28;20013;-79
2024/01/04 11:19:18;;;;;;;1.20;0.00;;;8.70;99.90;;;;;;5045985;28;20026;-79
2024/01/04 11:22:09;;;;;;;1.25;0.10;;;8.90;99.90;;;;;;5046188;28;20488;-79
2024/01/04 11:24:53;;;;;;;2.25;0.20;;;9.20;99.90;;;;;;5045115;28;20028;-78
2024/01/04 11:27:20;;;;;;;1.65;0.40;;;9.10;99.90;;;;;;5046250;28;20103;-79
2024/01/04 11:29:49;;;;;;;1.58;0.00;;;9.10;99.90;;;;;;5041073;28;20446;-78
2024/01/04 11:32:16;;;;;;;3.13;0.00;;;9.10;99.90;;;;;;5039327;28;20021;-78
2024/01/04 11:34:44;;;;;;;1.55;0.43;;;9.20;99.90;;;;;;5041170;28;20048;-79
2024/01/04 11:37:10;;;;;;;1.25;0.00;;;9.30;99.90;;;;;;5042150;28;20036;-79
2024/01/04 11:39:54;;;;;;;2.08;0.00;;;9.40;99.90;;;;;;5044140;28;20017;-79
2024/01/04 11:42:20;;;;;;;1.75;0.00;;;9.60;99.90;;;;;;5037629;28;20029;-77
2024/01/04 11:44:50;;;;;;;0.13;0.00;;;10.10;99.90;;;;;;5034987;28;20385;-76
2024/01/04 11:47:15;;;;;;;0.30;0.08;;;10.10;99.90;;;;;;5036424;28;20086;-78
2024/01/04 11:49:47;;;;;;;0.90;0.00;;;;;;;;;;5037204;28;20479;-78
2024/01/04 11:52:15;;;;;;;2.63;0.03;;;10.10;99.90;;;;;;5036245;28;20400;-78
2024/01/04 11:54:41;;;;;;;0.15;0.00;;;10.00;99.90;;;;;;5037797;28;20028;-78
2024/01/04 11:57:17;;;;;;;0.65;0.10;;;10.00;99.90;;;;;;5037003;28;20052;-78
2024/01/04 11:59:43;;;;;;;3.15;0.25;;;10.00;99.90;;;;;;5037559;28;20049;-78
2024/01/04 12:02:21;;;;;;;2.13;0.00;;;9.90;99.90;;;;;;5036553;28;20048;-78
2024/01/04 12:04:47;;;;;;;0.65;0.00;;;9.80;99.90;;;;;;5036541;28;20029;-78
2024/01/04 12:07:13;;;;;;;0.00;0.00;;;9.80;99.90;;;;;;5037352;28;20029;-78
2024/01/04 12:09:40;;;;;;;0.10;0.00;;;9.70;99.90;;;;;;5035598;28;20469;-78
2024/01/04 12:12:08;;;;;;;3.85;0.13;;;9.70;99.90;;;;;;5036008;28;20380;-78
2024/01/04 12:14:35;;;;;;;3.40;0.00;;;9.60;99.90;;;;;;5036054;28;20025;-79
2024/01/04 12:17:01;;;;;;;2.08;0.00;;;9.60;99.90;;;;;;5035265;28;20021;-78
2024/01/04 12:19:27;;;;;;;0.57;0.00;;;9.50;99.90;;;;;;5036639;28;20029;-78
2024/01/04 12:21:56;;;;;;;0.70;0.00;;;9.50;99.90;;;;;;5036975;28;20029;-78
2024/01/04 12:24:22;;;;;;;1.83;0.00;;;9.50;99.90;;;;;;5035370;28;20493;-78
2024/01/04 12:26:48;;;;;;;1.52;0.00;;;9.60;99.90;;;;;;5036216;28;20061;-78
2024/01/04 12:29:14;;;;;;;3.25;0.00;;;9.60;99.90;;;;;;5035034;28;20048;-78
2024/01/04 12:31:40;;;;;;;0.08;0.00;;;;;;;;;;5036467;28;20476;-78
2024/01/04 12:34:12;;;;;;;0.80;0.00;;;9.60;99.90;;;;;;5037148;28;20383;-78
2024/01/04 12:36:38;;;;;;;1.10;0.00;;;9.60;99.90;;;;;;5035501;28;20021;-78
2024/01/04 12:39:11;;;;;;;1.13;0.00;;;9.60;99.90;;;;;;5035439;28;20029;-78
2024/01/04 12:41:39;;;;;;;0.52;0.00;;;9.60;99.90;;;;;;5035367;28;20028;-78
2024/01/04 12:44:06;;;;;;;0.20;0.20;;;9.50;99.90;;;;;;5036029;28;20033;-78
2024/01/04 12:46:32;;;;;;;3.28;0.00;;;9.50;99.90;;;;;;5034513;28;20033;-78
2024/01/04 12:49:08;;;;;;;3.10;0.32;;;9.40;99.90;;;;;;5034856;28;20018;-78
2024/01/04 12:51:38;;;;;;;1.40;0.00;;;9.40;99.90;;;;;;5034836;28;20041;-78
2024/01/04 12:54:07;;;;;;;0.65;0.00;;;9.40;99.90;;;;;;5034731;28;20022;-78
2024/01/04 12:56:36;;;;;;;;;;;9.40;99.90;;;;;;5035126;28;20083;-78
2024/01/04 12:59:04;;;;;;;2.60;0.15;;;9.40;99.90;;;;;;5036268;28;19962;-78